createdAt,value
2017-07-01T00:00:58.747Z,15.50
2017-07-01T00:03:27.558Z,18.37
2017-07-01T00:05:55.977Z,16.57
2017-07-01T00:08:24.409Z,17.60
2017-07-01T00:10:52.827Z,19.60
2017-07-01T00:13:21.291Z,19.00
2017-07-01T00:15:49.710Z,20.63
2017-07-01T00:18:18.140Z,19.00
2017-07-01T00:20:46.557Z,17.83
2017-07-01T00:23:15.198Z,18.63
2017-07-01T00:25:43.627Z,17.43
2017-07-01T00:28:12.026Z,17.80
2017-07-01T00:30:40.456Z,19.03
2017-07-01T00:33:08.877Z,21.27
2017-07-01T00:35:37.299Z,20.73
2017-07-01T00:38:05.716Z,23.53
2017-07-01T00:40:34.450Z,23.03
2017-07-01T00:43:02.869Z,20.67
2017-07-01T00:45:31.282Z,22.30
2017-07-01T00:47:59.713Z,22.53
2017-07-01T00:50:28.125Z,26.23
2017-07-01T00:52:56.769Z,22.63
2017-07-01T00:55:25.571Z,30.03
2017-07-01T00:57:53.992Z,26.87
2017-07-01T01:00:22.419Z,21.80
2017-07-01T01:02:51.232Z,24.40
2017-07-01T01:05:19.662Z,22.17
2017-07-01T01:07:48.063Z,21.03
2017-07-01T01:10:17.188Z,23.50
2017-07-01T01:12:45.614Z,24.90
2017-07-01T01:15:14.010Z,22.17
2017-07-01T01:17:42.437Z,24.23
2017-07-01T01:20:10.839Z,23.40
2017-07-01T01:22:39.258Z,26.60
2017-07-01T01:25:08.162Z,25.20
2017-07-01T01:27:36.984Z,27.70
2017-07-01T01:30:05.390Z,29.20
2017-07-01T01:32:34.025Z,24.20
2017-07-01T01:35:02.431Z,25.57
2017-07-01T01:37:30.843Z,26.93
2017-07-01T01:39:59.260Z,22.73
2017-07-01T01:42:28.054Z,21.53
2017-07-01T01:44:56.488Z,20.47
2017-07-01T01:47:24.891Z,22.10
2017-07-01T01:49:53.720Z,21.07
2017-07-01T01:52:22.144Z,23.00
2017-07-01T01:54:50.773Z,23.90
2017-07-01T01:57:19.261Z,23.53
2017-07-01T01:59:47.676Z,21.57
2017-07-01T02:02:16.118Z,18.87
2017-07-01T02:04:44.545Z,19.53
2017-07-01T02:07:13.278Z,19.80
2017-07-01T02:09:42.080Z,21.40
2017-07-01T02:12:14.063Z,20.23
2017-07-01T02:14:42.463Z,20.93
2017-07-01T02:17:27.793Z,20.43
2017-07-01T02:19:56.221Z,22.30
2017-07-01T02:22:28.747Z,21.73
2017-07-01T02:25:00.280Z,23.13
2017-07-01T02:27:28.723Z,21.77
2017-07-01T02:29:57.152Z,23.60
2017-07-01T02:32:26.923Z,22.10
2017-07-01T02:35:02.048Z,22.57
2017-07-01T02:37:30.465Z,24.67
2017-07-01T02:39:58.910Z,26.13
2017-07-01T02:42:27.900Z,25.13
2017-07-01T02:44:56.556Z,29.73
2017-07-01T02:47:43.227Z,27.63
2017-07-01T02:50:27.428Z,25.57
2017-07-01T02:53:11.095Z,31.30
2017-07-01T02:56:05.822Z,29.47
2017-07-01T02:58:35.629Z,26.87
2017-07-01T03:01:04.243Z,28.63
2017-07-01T03:03:33.051Z,27.60
2017-07-01T03:06:01.453Z,27.80
2017-07-01T03:08:29.880Z,30.00
2017-07-01T03:10:58.296Z,29.70
2017-07-01T03:13:26.712Z,44.87
2017-07-01T03:15:55.116Z,32.63
2017-07-01T03:18:23.550Z,26.70
2017-07-01T03:20:52.215Z,29.70
2017-07-01T03:23:21.053Z,27.23
2017-07-01T03:25:55.445Z,25.43
2017-07-01T03:28:24.122Z,26.13
2017-07-01T03:30:52.531Z,27.80
2017-07-01T03:33:20.949Z,28.57
2017-07-01T03:35:49.381Z,29.70
2017-07-01T03:38:35.519Z,37.50
2017-07-01T03:41:38.275Z,31.33
2017-07-01T03:44:22.302Z,31.60
2017-07-01T03:46:55.186Z,36.23
2017-07-01T03:49:44.394Z,33.07
2017-07-01T03:52:12.804Z,30.57
2017-07-01T03:57:56.343Z,44.00
2017-07-01T04:00:27.131Z,33.90
2017-07-01T04:02:55.535Z,44.67
2017-07-01T04:05:23.957Z,52.43
2017-07-01T04:07:52.763Z,41.33
2017-07-01T04:10:22.720Z,39.47
2017-07-01T04:12:51.142Z,43.63
2017-07-01T04:15:19.961Z,37.40
2017-07-01T04:17:48.390Z,37.60
2017-07-01T04:20:17.630Z,40.03
2017-07-01T04:22:47.172Z,32.30
2017-07-01T04:25:15.589Z,40.70
2017-07-01T04:27:44.924Z,43.17
2017-07-01T04:30:13.724Z,36.50
2017-07-01T04:32:42.145Z,35.47
2017-07-01T04:35:10.576Z,32.53
2017-07-01T04:37:38.983Z,34.27
2017-07-01T04:40:31.785Z,34.23
2017-07-01T04:43:12.638Z,36.90
2017-07-01T04:45:42.810Z,39.83
2017-07-01T04:48:15.700Z,32.43
2017-07-01T04:54:26.302Z,29.37
2017-07-01T04:57:10.118Z,33.30
2017-07-01T04:59:44.511Z,32.00
2017-07-01T05:02:13.948Z,34.43
2017-07-01T05:04:43.124Z,30.80
2017-07-01T05:10:41.373Z,31.63
2017-07-01T05:13:10.140Z,30.80
2017-07-01T05:15:42.030Z,31.23
2017-07-01T05:18:10.449Z,33.77
2017-07-01T05:20:56.602Z,35.27
2017-07-01T05:23:32.243Z,28.23
2017-07-01T05:26:07.115Z,29.10
2017-07-01T05:28:44.681Z,31.30
2017-07-01T05:31:32.701Z,27.20
2017-07-01T05:34:05.001Z,29.53
2017-07-01T05:36:48.771Z,28.13
2017-07-01T05:39:18.923Z,29.90
2017-07-01T05:45:08.933Z,30.20
2017-07-01T05:47:37.732Z,31.80
2017-07-01T05:50:06.197Z,32.97
2017-07-01T05:52:35.033Z,38.70
2017-07-01T05:55:03.571Z,26.57
2017-07-01T05:57:32.372Z,28.20
2017-07-01T06:00:00.879Z,28.10
2017-07-01T06:02:29.314Z,25.27
2017-07-01T06:04:58.122Z,22.93
2017-07-01T06:07:26.564Z,27.10
2017-07-01T06:13:14.973Z,23.77
2017-07-01T06:15:47.211Z,24.77
2017-07-01T06:18:30.506Z,28.90
2017-07-01T06:21:01.416Z,26.03
2017-07-01T06:23:34.428Z,26.17
2017-07-01T06:26:37.187Z,20.87
2017-07-01T06:29:38.581Z,32.33
2017-07-01T06:32:42.514Z,24.20
2017-07-01T06:35:32.034Z,23.70
2017-07-01T06:38:42.606Z,18.07
2017-07-01T06:41:18.185Z,29.60
2017-07-01T06:44:15.984Z,20.77
2017-07-01T06:46:47.763Z,18.20
2017-07-01T06:49:16.881Z,18.03
2017-07-01T06:51:45.297Z,16.57
2017-07-01T06:54:19.231Z,22.03
2017-07-01T06:56:47.639Z,17.07
2017-07-01T06:59:16.632Z,15.40
2017-07-01T07:01:45.427Z,14.83
2017-07-01T07:04:14.238Z,16.93
2017-07-01T07:06:42.662Z,14.67
2017-07-01T07:09:11.088Z,12.50
2017-07-01T07:11:39.517Z,12.80
2017-07-01T07:14:07.922Z,13.10
2017-07-01T07:16:36.356Z,12.33
2017-07-01T07:19:04.769Z,11.87
2017-07-01T07:21:33.395Z,11.53
2017-07-01T07:24:01.818Z,11.43
2017-07-01T07:26:30.228Z,19.73
2017-07-01T07:28:58.659Z,8.87
2017-07-01T07:31:27.081Z,9.00
2017-07-01T07:33:55.513Z,7.07
2017-07-01T07:36:23.938Z,11.37
2017-07-01T07:38:52.480Z,7.20
2017-07-01T07:41:20.894Z,4.73
2017-07-01T07:43:49.307Z,3.13
2017-07-01T07:46:17.738Z,3.60
2017-07-01T07:48:46.145Z,4.10
2017-07-01T07:51:14.555Z,1.90
2017-07-01T07:53:42.942Z,3.33
2017-07-01T07:56:11.454Z,2.80
2017-07-01T07:58:39.850Z,2.80
2017-07-01T08:01:08.249Z,4.83
2017-07-01T08:03:36.690Z,6.60
2017-07-01T08:06:05.101Z,5.23
2017-07-01T08:08:33.573Z,1.27
2017-07-01T08:11:01.979Z,8.20
2017-07-01T08:13:30.405Z,3.00
2017-07-01T08:15:58.812Z,1.97
2017-07-01T08:18:27.351Z,1.50
2017-07-01T08:20:56.145Z,5.47
2017-07-01T08:23:24.945Z,1.50
2017-07-01T08:25:53.354Z,1.70
2017-07-01T08:28:21.771Z,1.47
2017-07-01T08:30:50.188Z,2.70
2017-07-01T08:33:18.592Z,3.43
2017-07-01T08:35:47.003Z,3.20
2017-07-01T08:38:15.405Z,2.60
2017-07-01T08:40:44.903Z,3.57
2017-07-01T08:43:13.703Z,2.53
2017-07-01T08:45:42.510Z,3.17
2017-07-01T08:48:10.920Z,3.17
2017-07-01T08:50:39.333Z,5.13
2017-07-01T08:53:08.046Z,4.50
2017-07-01T08:55:36.861Z,9.20
2017-07-01T08:58:05.280Z,5.87
2017-07-01T09:00:33.670Z,5.30
2017-07-01T09:03:02.187Z,5.57
2017-07-01T09:05:30.595Z,4.43
2017-07-01T09:07:59.019Z,8.33
2017-07-01T09:10:27.423Z,4.30
2017-07-01T09:12:56.423Z,5.13
2017-07-01T09:15:24.815Z,9.87
2017-07-01T09:17:53.209Z,6.80
2017-07-01T09:20:21.627Z,4.63
2017-07-01T09:22:50.027Z,5.37
2017-07-01T09:25:18.852Z,9.63
2017-07-01T09:27:47.261Z,7.77
2017-07-01T09:30:15.837Z,4.30
2017-07-01T09:32:44.230Z,5.13
2017-07-01T09:35:12.622Z,9.13
2017-07-01T09:37:41.041Z,8.47
2017-07-01T09:40:09.458Z,3.03
2017-07-01T09:42:37.867Z,6.63
2017-07-01T09:45:06.263Z,10.10
2017-07-01T09:47:35.093Z,5.47
2017-07-01T09:50:03.524Z,6.30
2017-07-01T09:52:31.918Z,5.20
2017-07-01T09:55:00.728Z,5.47
2017-07-01T09:57:29.123Z,10.73
2017-07-01T09:59:57.536Z,4.60
2017-07-01T10:02:25.952Z,6.60
2017-07-01T10:04:54.774Z,3.57
2017-07-01T10:07:23.180Z,6.90
2017-07-01T10:09:52.334Z,3.73
2017-07-01T10:12:20.739Z,3.40
2017-07-01T10:14:49.127Z,4.67
2017-07-01T10:17:17.552Z,4.07
2017-07-01T10:19:45.946Z,4.80
2017-07-01T10:22:14.763Z,8.37
2017-07-01T10:24:43.154Z,9.93
2017-07-01T10:27:11.594Z,7.50
2017-07-01T10:29:40.396Z,7.30
2017-07-01T10:32:08.806Z,6.47
2017-07-01T10:34:37.212Z,7.70
2017-07-01T10:37:05.604Z,8.67
2017-07-01T10:39:34.018Z,8.50
2017-07-01T10:42:02.417Z,9.60
2017-07-01T10:44:30.998Z,10.53
2017-07-01T10:46:59.407Z,11.23
2017-07-01T10:49:27.826Z,9.17
2017-07-01T10:51:56.645Z,7.40
2017-07-01T10:54:25.048Z,7.50
2017-07-01T10:56:53.600Z,7.63
2017-07-01T10:59:22.721Z,6.57
2017-07-01T11:01:51.116Z,7.33
2017-07-01T11:04:19.523Z,5.83
2017-07-01T11:06:47.910Z,5.10
2017-07-01T11:09:17.024Z,5.43
2017-07-01T11:11:45.847Z,6.00
2017-07-01T11:14:14.252Z,6.47
2017-07-01T11:16:42.673Z,6.33
2017-07-01T11:19:11.075Z,4.90
2017-07-01T11:21:39.485Z,10.70
2017-07-01T11:24:07.910Z,4.67
2017-07-01T11:26:36.909Z,5.67
2017-07-01T11:29:05.707Z,5.40
2017-07-01T11:31:34.098Z,5.03
2017-07-01T11:34:02.527Z,6.10
2017-07-01T11:36:31.640Z,6.40
2017-07-01T11:39:00.061Z,5.67
2017-07-01T11:41:28.468Z,6.53
2017-07-01T11:43:56.887Z,7.33
2017-07-01T11:46:25.687Z,7.23
2017-07-01T11:48:54.129Z,11.70
2017-07-01T11:51:22.681Z,6.30
2017-07-01T11:53:51.230Z,8.20
2017-07-01T11:56:20.723Z,6.43
2017-07-01T11:58:49.195Z,9.77
2017-07-01T12:01:17.607Z,6.70
2017-07-01T12:03:46.009Z,5.70
2017-07-01T12:06:14.432Z,6.40
2017-07-01T12:08:42.833Z,6.33
2017-07-01T12:11:11.642Z,6.80
2017-07-01T12:13:40.038Z,6.40
2017-07-01T12:16:08.463Z,7.73
2017-07-01T12:18:36.869Z,8.17
2017-07-01T12:21:05.693Z,7.20
2017-07-01T12:23:34.100Z,7.90
2017-07-01T12:26:02.926Z,9.00
2017-07-01T12:28:31.314Z,9.80
2017-07-01T12:30:59.732Z,15.93
2017-07-01T12:33:28.165Z,18.57
2017-07-01T12:35:56.575Z,19.73
2017-07-01T12:38:24.996Z,14.50
2017-07-01T12:40:53.395Z,16.77
2017-07-01T12:43:21.823Z,13.60
2017-07-01T12:45:50.223Z,11.47
2017-07-01T12:48:18.757Z,9.87
2017-07-01T12:50:47.552Z,9.80
2017-07-01T12:53:16.369Z,8.20
2017-07-01T12:55:44.774Z,8.17
2017-07-01T12:58:13.175Z,10.13
2017-07-01T13:00:41.613Z,8.50
2017-07-01T13:03:10.002Z,8.37
2017-07-01T13:05:38.535Z,7.63
2017-07-01T13:08:06.944Z,10.27
2017-07-01T13:10:35.747Z,7.10
2017-07-01T13:13:04.167Z,7.33
2017-07-01T13:15:32.570Z,8.30
2017-07-01T13:18:01.375Z,6.43
2017-07-01T13:20:29.785Z,14.80
2017-07-01T13:22:58.531Z,5.93
2017-07-01T13:25:27.349Z,6.63
2017-07-01T13:27:56.334Z,5.70
2017-07-01T13:30:24.755Z,5.53
2017-07-01T13:32:53.158Z,5.50
2017-07-01T13:35:21.581Z,6.07
2017-07-01T13:37:49.983Z,5.67
2017-07-01T13:40:18.401Z,6.07
2017-07-01T13:42:46.813Z,5.40
2017-07-01T13:45:15.238Z,5.70
2017-07-01T13:47:43.968Z,6.47
2017-07-01T13:50:13.124Z,6.07
2017-07-01T13:52:41.523Z,6.43
2017-07-01T13:55:09.935Z,4.83
2017-07-01T13:57:38.367Z,5.43
2017-07-01T14:00:06.767Z,5.73
2017-07-01T14:02:35.193Z,5.20
2017-07-01T14:05:03.586Z,4.20
2017-07-01T14:07:32.136Z,8.47
2017-07-01T14:10:00.526Z,5.23
2017-07-01T14:12:28.918Z,5.13
2017-07-01T14:14:57.334Z,6.37
2017-07-01T14:17:25.737Z,4.73
2017-07-01T14:19:54.564Z,5.10
2017-07-01T14:22:22.980Z,5.00
2017-07-01T14:24:51.713Z,3.47
2017-07-01T14:27:20.126Z,7.63
2017-07-01T14:29:48.541Z,3.70
2017-07-01T14:32:16.930Z,3.30
2017-07-01T14:34:45.344Z,3.37
2017-07-01T14:37:13.738Z,3.50
2017-07-01T14:39:42.155Z,3.90
2017-07-01T14:42:10.552Z,3.53
2017-07-01T14:44:39.151Z,4.60
2017-07-01T14:47:08.726Z,3.50
2017-07-01T14:49:41.452Z,3.93
2017-07-01T14:52:12.581Z,4.47
2017-07-01T14:54:44.334Z,3.17
2017-07-01T14:57:13.602Z,3.77
2017-07-01T14:59:43.352Z,4.50
2017-07-01T15:02:14.574Z,4.53
2017-07-01T15:04:46.760Z,4.10
2017-07-01T15:07:16.504Z,3.70
2017-07-01T15:09:49.699Z,4.37
2017-07-01T15:12:18.251Z,3.70
2017-07-01T15:14:47.178Z,3.27
2017-07-01T15:17:17.342Z,3.17
2017-07-01T15:19:45.907Z,4.07
2017-07-01T15:22:14.434Z,4.43
2017-07-01T15:24:43.349Z,4.47
2017-07-01T15:27:13.120Z,9.10
2017-07-01T15:29:41.883Z,5.20
2017-07-01T15:32:10.563Z,5.83
2017-07-01T15:34:39.778Z,5.83
2017-07-01T15:37:09.271Z,7.97
2017-07-01T15:39:39.074Z,6.43
2017-07-01T15:42:07.664Z,5.13
2017-07-01T15:44:38.099Z,7.17
2017-07-01T15:47:06.518Z,5.50
2017-07-01T15:49:35.167Z,6.07
2017-07-01T15:52:03.750Z,5.00
2017-07-01T15:54:32.847Z,5.40
2017-07-01T15:57:01.989Z,5.40
2017-07-01T16:02:31.115Z,7.90
2017-07-01T16:05:01.620Z,6.57
2017-07-01T16:07:36.703Z,9.70
2017-07-01T16:10:05.583Z,6.80
2017-07-01T16:12:34.607Z,9.27
2017-07-01T16:15:03.163Z,9.53
2017-07-01T16:17:35.139Z,9.13
2017-07-01T16:20:04.421Z,8.33
2017-07-01T16:22:33.785Z,9.23
2017-07-01T16:25:03.276Z,8.60
2017-07-01T16:27:38.362Z,9.07
2017-07-01T16:30:07.437Z,11.50
2017-07-01T16:32:36.566Z,8.83
2017-07-01T16:35:05.011Z,7.33
2017-07-01T16:37:33.729Z,9.40
2017-07-01T16:40:02.341Z,9.47
2017-07-01T16:42:30.765Z,9.43
2017-07-01T16:44:59.648Z,10.37
2017-07-01T16:47:28.084Z,7.87
2017-07-01T16:49:56.765Z,14.60
2017-07-01T16:52:25.386Z,7.50
2017-07-01T16:54:54.036Z,9.77
2017-07-01T16:57:22.519Z,7.33
2017-07-01T16:59:51.509Z,7.00
2017-07-01T17:02:19.927Z,7.97
2017-07-01T17:04:48.549Z,8.03
2017-07-01T17:07:17.433Z,7.80
2017-07-01T17:09:45.884Z,8.30
2017-07-01T17:12:15.577Z,7.90
2017-07-01T17:14:44.883Z,8.60
2017-07-01T17:17:13.719Z,7.10
2017-07-01T17:19:43.363Z,8.60
2017-07-01T17:22:13.183Z,9.33
2017-07-01T17:24:41.734Z,10.37
2017-07-01T17:27:10.688Z,10.70
2017-07-01T17:29:40.439Z,9.17
2017-07-01T17:32:09.301Z,12.00
2017-07-01T17:34:39.215Z,12.33
2017-07-01T17:37:07.673Z,12.73
2017-07-01T17:39:36.472Z,13.33
2017-07-01T17:42:04.874Z,11.40
2017-07-01T17:44:33.852Z,12.30
2017-07-01T17:47:02.290Z,13.87
2017-07-01T17:49:32.832Z,53.53
2017-07-01T17:52:02.858Z,12.07
2017-07-01T17:54:35.475Z,8.60
2017-07-01T17:57:05.695Z,7.90
2017-07-01T17:59:34.131Z,7.93
2017-07-01T18:02:02.658Z,7.03
2017-07-01T18:04:31.313Z,7.00
2017-07-01T18:07:01.047Z,4.87
2017-07-01T18:09:29.997Z,5.70
2017-07-01T18:12:02.896Z,8.27
2017-07-01T18:14:34.362Z,5.73
2017-07-01T18:17:02.773Z,4.73
2017-07-01T18:19:33.693Z,4.97
2017-07-01T18:22:02.101Z,4.80
2017-07-01T18:24:30.851Z,4.70
2017-07-01T18:26:59.730Z,3.70
2017-07-01T18:29:28.943Z,4.03
2017-07-01T18:31:58.966Z,3.83
2017-07-01T18:34:28.232Z,3.47
2017-07-01T18:36:57.756Z,2.60
2017-07-01T18:39:27.334Z,4.13
2017-07-01T18:42:03.849Z,5.73
2017-07-01T18:44:34.298Z,4.60
2017-07-01T18:47:02.694Z,5.07
2017-07-01T18:49:31.400Z,3.50
2017-07-01T18:51:59.913Z,3.50
2017-07-01T18:54:28.314Z,6.30
2017-07-01T18:56:56.727Z,3.50
2017-07-01T18:59:25.621Z,3.50
2017-07-01T19:01:54.625Z,4.20
2017-07-01T19:04:24.167Z,4.37
2017-07-01T19:06:52.687Z,4.80
2017-07-01T19:09:21.094Z,5.37
2017-07-01T19:11:49.890Z,4.60
2017-07-01T19:14:18.314Z,5.13
2017-07-01T19:16:47.401Z,5.93
2017-07-01T19:19:16.084Z,6.20
2017-07-01T19:21:44.880Z,5.60
2017-07-01T19:24:13.269Z,5.30
2017-07-01T19:26:42.006Z,8.73
2017-07-01T19:29:10.966Z,5.73
2017-07-01T19:31:39.374Z,5.10
2017-07-01T19:34:08.212Z,5.00
2017-07-01T19:36:36.744Z,11.77
2017-07-01T19:39:05.576Z,5.27
2017-07-01T19:41:34.354Z,6.50
2017-07-01T19:44:02.766Z,5.27
2017-07-01T19:46:31.170Z,4.83
2017-07-01T19:48:59.678Z,3.40
2017-07-01T19:51:28.464Z,4.17
2017-07-01T19:53:57.561Z,3.47
2017-07-01T19:56:26.383Z,3.70
2017-07-01T19:58:54.953Z,3.33
2017-07-01T20:01:24.235Z,5.00
2017-07-01T20:03:52.641Z,4.60
2017-07-01T20:06:21.890Z,4.90
2017-07-01T20:08:50.331Z,5.53
2017-07-01T20:11:18.738Z,5.60
2017-07-01T20:13:47.375Z,8.73
2017-07-01T20:16:16.061Z,4.87
2017-07-01T20:18:44.453Z,5.80
2017-07-01T20:21:13.118Z,5.47
2017-07-01T20:23:41.994Z,10.50
2017-07-01T20:26:10.403Z,8.27
2017-07-01T20:28:38.819Z,7.70
2017-07-01T20:31:07.218Z,8.23
2017-07-01T20:33:36.246Z,8.90
2017-07-01T20:36:05.558Z,7.33
2017-07-01T20:38:34.658Z,7.80
2017-07-01T20:41:03.199Z,7.40
2017-07-01T20:43:31.596Z,6.17
2017-07-01T20:46:00.711Z,7.00
2017-07-01T20:48:29.501Z,7.33
2017-07-01T20:50:58.597Z,7.43
2017-07-01T20:53:27.384Z,10.80
2017-07-01T20:55:56.190Z,6.13
2017-07-01T20:58:24.713Z,8.00
2017-07-01T21:00:53.136Z,7.90
2017-07-01T21:03:21.935Z,8.07
2017-07-01T21:05:51.121Z,8.83
2017-07-01T21:08:19.904Z,7.80
2017-07-01T21:10:49.118Z,8.97
2017-07-01T21:13:18.367Z,10.70
2017-07-01T21:15:46.774Z,10.77
2017-07-01T21:18:15.186Z,7.43
2017-07-01T21:20:43.573Z,8.10
2017-07-01T21:23:12.249Z,19.57
2017-07-01T21:25:41.039Z,9.13
2017-07-01T21:28:10.314Z,7.70
2017-07-01T21:30:38.706Z,7.37
2017-07-01T21:33:07.493Z,8.10
2017-07-01T21:35:35.913Z,7.27
2017-07-01T21:38:04.311Z,7.37
2017-07-01T21:40:33.157Z,6.80
2017-07-01T21:43:01.955Z,7.40
2017-07-01T21:45:30.764Z,7.67
2017-07-01T21:47:59.154Z,7.57
2017-07-01T21:50:27.884Z,7.47
2017-07-01T21:52:56.294Z,7.40
2017-07-01T21:55:24.972Z,8.13
2017-07-01T21:57:53.866Z,9.43
2017-07-01T22:00:22.769Z,12.60
2017-07-01T22:02:51.186Z,7.50
2017-07-01T22:05:19.601Z,8.70
2017-07-01T22:07:48.281Z,7.60
2017-07-01T22:10:16.679Z,8.43
2017-07-01T22:12:45.560Z,7.77
2017-07-01T22:15:13.983Z,8.13
2017-07-01T22:17:42.370Z,7.77
2017-07-01T22:20:10.774Z,8.30
2017-07-01T22:22:39.188Z,9.37
2017-07-01T22:25:07.595Z,9.13
2017-07-01T22:27:36.921Z,8.97
2017-07-01T22:30:06.802Z,11.97
2017-07-01T22:32:35.598Z,10.23
2017-07-01T22:35:04.007Z,10.10
2017-07-01T22:37:32.417Z,10.90
2017-07-01T22:40:00.819Z,19.73
2017-07-01T22:42:29.620Z,11.03
2017-07-01T22:44:59.908Z,16.07
2017-07-01T22:47:28.526Z,9.93
2017-07-01T22:49:57.328Z,15.30
2017-07-01T22:52:25.739Z,12.30
2017-07-01T22:54:54.154Z,11.20
2017-07-01T22:57:22.551Z,10.30
2017-07-01T22:59:51.488Z,11.33
2017-07-01T23:02:19.884Z,9.63
2017-07-01T23:04:48.300Z,11.90
2017-07-01T23:07:17.006Z,13.73
2017-07-01T23:09:45.813Z,10.03
2017-07-01T23:12:14.212Z,22.73
2017-07-01T23:14:42.845Z,12.57
2017-07-01T23:17:11.229Z,9.27
2017-07-01T23:19:40.023Z,10.90
2017-07-01T23:22:09.605Z,9.90
2017-07-01T23:24:37.993Z,12.40
2017-07-01T23:27:06.402Z,9.97
2017-07-01T23:29:35.194Z,13.30
2017-07-01T23:32:03.999Z,8.67
2017-07-01T23:34:33.172Z,10.53
2017-07-01T23:37:02.054Z,9.33
2017-07-01T23:39:30.838Z,9.37
2017-07-01T23:41:59.433Z,14.97
2017-07-01T23:44:28.217Z,12.63
2017-07-01T23:46:57.018Z,12.27
2017-07-01T23:49:26.122Z,10.90
2017-07-01T23:51:54.904Z,10.03
2017-07-01T23:54:23.711Z,9.77
2017-07-01T23:56:52.109Z,20.80
2017-07-01T23:59:20.547Z,11.87
